Time;durP1;ratioP1;P1;durP2;ratioP2;P2;SDS_P1;SDS_P2;PMS_P1;PMS_P2;Temp;Humidity;BMP_temperature;BMP_pressure;BME280_temperature;BME280_humidity;BME280_pressure;Samples;Min_cycle;Max_cycle;Signal;HPM_P1;HPM_P2
2021/06/21 00:08:10;;;;;;;11.40;3.13;;;;;;;18.23;84.18;99553.56;20663871;28;20038;-70
2021/06/21 00:18:14;;;;;;;9.95;2.45;;;;;;;18.11;84.23;99550.72;20663606;28;20515;-70
2021/06/21 00:28:17;;;;;;;17.02;3.42;;;;;;;18.14;84.20;99547.88;20663223;28;20050;-69
2021/06/21 00:38:18;;;;;;;15.15;3.60;;;;;;;17.99;84.07;99532.91;20661427;28;20046;-70
2021/06/21 00:48:20;;;;;;;11.43;3.88;;;;;;;18.01;85.22;99533.66;20661383;28;20058;-70
2021/06/21 00:58:22;;;;;;;14.32;2.90;;;;;;;18.04;84.93;99533.47;20660798;28;20058;-69
2021/06/21 01:08:24;;;;;;;10.10;2.47;;;;;;;18.04;84.90;99522.88;20659380;28;20105;-70
2021/06/21 01:18:29;;;;;;;13.27;3.50;;;;;;;18.03;84.32;99531.78;20658997;28;20054;-70
2021/06/21 01:29:08;;;;;;;12.23;3.35;;;;;;;18.04;84.65;99546.72;20658146;28;20050;-70
2021/06/21 01:39:11;;;;;;;14.80;2.88;;;;;;;17.93;84.81;99559.75;20657746;28;20451;-70
2021/06/21 01:49:20;;;;;;;10.25;2.40;;;;;;;17.86;84.46;99556.59;20645587;28;20047;-70
2021/06/21 01:59:26;;;;;;;9.20;2.60;;;;;;;17.81;85.24;99541.94;20657275;28;20595;-70
2021/06/21 02:09:28;;;;;;;12.23;3.22;;;;;;;17.46;85.24;99541.34;20670604;28;20042;-71
2021/06/21 02:19:31;;;;;;;15.25;2.90;;;;;;;17.41;84.66;99553.03;20655458;28;20078;-71
2021/06/21 02:29:34;;;;;;;10.20;2.28;;;;;;;17.31;85.07;99549.22;20655113;28;20050;-70
2021/06/21 02:39:36;;;;;;;9.70;2.50;;;;;;;17.36;84.77;99535.72;20635036;28;20046;-70
2021/06/21 02:49:38;;;;;;;16.38;2.58;;;;;;;17.36;85.45;99573.63;20653604;28;20058;-70
2021/06/21 02:59:44;;;;;;;11.90;2.70;;;;;;;17.29;85.31;99572.25;20653596;28;20046;-70
2021/06/21 03:09:47;;;;;;;13.98;2.30;;;;;;;17.28;85.23;99562.59;20652791;28;20049;-70
2021/06/21 03:19:50;;;;;;;13.10;3.27;;;;;;;17.26;85.14;99561.84;20647034;28;20584;-70
2021/06/21 03:29:52;;;;;;;12.93;2.88;;;;;;;17.16;85.77;99560.66;20667489;28;20054;-70
2021/06/21 03:39:55;;;;;;;12.15;3.10;;;;;;;17.21;85.14;99571.84;20667217;28;20106;-70
2021/06/21 03:49:56;;;;;;;11.38;3.47;;;;;;;17.20;84.96;99570.13;20667435;28;20389;-69
2021/06/21 03:59:58;;;;;;;14.75;3.28;;;;;;;17.31;84.83;99575.66;20666233;28;20405;-69
2021/06/21 04:10:03;;;;;;;15.38;3.65;;;;;;;17.19;85.04;99576.34;20664861;28;20042;-69
2021/06/21 04:20:10;;;;;;;13.17;3.67;;;;;;;17.31;84.72;99575.66;20664847;28;20046;-70
2021/06/21 04:30:16;;;;;;;9.30;3.28;;;;;;;17.36;84.89;99588.63;20664117;28;20444;-69
2021/06/21 04:40:20;;;;;;;13.65;3.40;;;;;;;18.94;78.31;99566.84;20664853;28;20055;-69
2021/06/21 04:50:22;;;;;;;15.68;3.78;;;;;;;19.01;77.91;99552.22;20663541;28;20649;-69
2021/06/21 05:00:27;;;;;;;15.82;3.53;;;;;;;19.06;78.26;99555.41;20662555;28;20046;-69
2021/06/21 05:10:30;;;;;;;13.20;3.88;;;;;;;18.78;80.05;99571.38;20662029;28;20488;-69
2021/06/21 05:20:32;;;;;;;20.02;3.10;;;;;;;18.85;79.96;99567.41;20644180;28;20046;-69
2021/06/21 05:30:34;;;;;;;15.25;3.47;;;;;;;18.78;80.76;99582.88;20661031;28;20058;-69
2021/06/21 05:40:35;;;;;;;12.15;3.25;;;;;;;19.03;79.99;99581.31;20660763;28;20489;-68
2021/06/21 05:50:38;;;;;;;12.80;2.47;;;;;;;19.41;77.37;99570.88;20660611;28;20121;-68
2021/06/21 06:00:40;;;;;;;9.73;2.72;;;;;;;19.51;77.01;99587.91;20658291;28;20046;-69
2021/06/21 06:10:42;;;;;;;11.15;2.80;;;;;;;19.61;77.43;99580.22;20658965;28;20047;-69
2021/06/21 06:20:44;;;;;;;13.65;3.15;;;;;;;20.01;76.72;99602.31;20657961;28;20523;-69
2021/06/21 06:31:07;;;;;;;16.20;2.88;;;;;;;20.29;74.95;99595.97;20602552;28;20062;-69
2021/06/21 06:41:08;;;;;;;11.32;2.28;;;;;;;20.33;74.95;99600.13;20576547;28;20469;-69
2021/06/21 06:51:10;;;;;;;12.45;2.53;;;;;;;20.27;74.64;99608.53;20573843;28;20055;-69
2021/06/21 07:01:11;;;;;;;9.18;2.50;;;;;;;20.44;73.10;99604.69;20573775;28;20055;-69
2021/06/21 07:11:15;;;;;;;7.85;2.05;;;;;;;20.67;72.59;99609.31;20562239;28;20043;-70
2021/06/21 07:21:17;;;;;;;6.53;2.17;;;;;;;20.93;70.51;99614.59;20573520;28;20109;-69
2021/06/21 07:31:18;;;;;;;10.35;2.58;;;;;;;21.27;70.33;99611.22;20656538;28;20042;-70
2021/06/21 07:41:20;;;;;;;9.52;2.40;;;;;;;21.24;68.04;99603.44;20616848;28;20537;-69
2021/06/21 07:51:23;;;;;;;9.40;1.90;;;;;;;21.48;66.56;99621.28;20575850;28;20134;-69
2021/06/21 08:01:25;;;;;;;6.90;1.80;;;;;;;21.92;65.82;99611.81;20576712;28;20061;-69
2021/06/21 08:11:27;;;;;;;9.85;2.00;;;;;;;22.10;64.12;99610.44;20595840;28;20070;-68
2021/06/21 08:21:29;;;;;;;8.57;1.85;;;;;;;22.38;61.96;99635.88;20650861;28;20051;-68
2021/06/21 08:31:31;;;;;;;9.77;1.92;;;;;;;22.96;60.44;99627.84;20649423;28;20129;-68
2021/06/21 08:41:33;;;;;;;10.70;2.78;;;;;;;23.84;57.09;99621.59;20665651;28;20438;-67
2021/06/21 08:51:36;;;;;;;6.15;1.63;;;;;;;24.01;55.72;99635.25;20664486;28;20058;-68
2021/06/21 09:01:40;;;;;;;8.30;1.90;;;;;;;24.43;53.53;99647.81;20664952;28;20051;-68
2021/06/21 09:11:49;;;;;;;6.28;1.75;;;;;;;24.23;53.26;99653.00;20655409;28;20436;-69
2021/06/21 09:21:52;;;;;;;11.20;2.22;;;;;;;24.53;52.69;99646.09;20583281;28;20055;-68
2021/06/21 09:31:56;;;;;;;5.47;1.90;;;;;;;24.74;51.15;99624.63;20581599;28;20398;-68
2021/06/21 09:42:22;;;;;;;6.80;1.50;;;;;;;25.06;51.16;99643.25;20578969;28;20050;-69
2021/06/21 09:52:41;;;;;;;6.20;1.50;;;;;;;24.18;52.82;99647.19;20581527;28;20405;-70
2021/06/21 10:02:43;;;;;;;4.63;1.35;;;;;;;25.73;50.41;99641.75;20578980;28;20098;-70
2021/06/21 10:12:45;;;;;;;5.13;1.65;;;;;;;24.86;49.77;99655.69;20579098;28;20089;-70
2021/06/21 10:22:47;;;;;;;4.57;1.33;;;;;;;25.07;50.50;99661.03;20656841;28;20050;-70
2021/06/21 10:32:52;;;;;;;4.38;1.40;;;;;;;25.99;49.17;99650.97;20657039;28;20397;-71
2021/06/21 10:42:54;;;;;;;4.13;1.75;;;;;;;25.06;50.96;99660.16;20640348;28;20046;-70
2021/06/21 10:52:58;;;;;;;5.20;1.50;;;;;;;24.62;50.90;99658.66;20657459;28;20086;-70
2021/06/21 11:03:02;;;;;;;4.65;1.55;;;;;;;24.92;50.80;99652.50;20656343;28;20050;-71
2021/06/21 11:13:32;;;;;;;5.38;1.50;;;;;;;25.00;48.63;99649.97;20636490;28;20109;-71
2021/06/21 11:23:39;;;;;;;5.00;1.40;;;;;;;25.32;47.14;99654.34;20575651;28;20093;-71
2021/06/21 11:33:52;;;;;;;2.65;1.10;;;;;;;26.03;44.69;99644.34;20576192;28;20409;-71
2021/06/21 11:43:57;;;;;;;2.90;1.07;;;;;;;25.53;44.98;99648.91;20591688;28;20047;-71
2021/06/21 11:54:01;;;;;;;3.03;1.27;;;;;;;25.16;45.98;99633.44;20590984;28;20046;-70
2021/06/21 12:04:27;;;;;;;2.97;1.40;;;;;;;25.58;46.22;99635.91;20589324;28;20050;-70
2021/06/21 12:14:28;;;;;;;4.20;1.35;;;;;;;25.46;45.59;99637.88;20620585;28;20531;-70
2021/06/21 12:24:31;;;;;;;4.28;1.20;;;;;;;26.16;43.73;99629.75;20668661;28;20402;-69
2021/06/21 12:34:44;;;;;;;4.87;1.53;;;;;;;26.10;42.72;99618.63;20667598;28;20054;-69
2021/06/21 12:44:47;;;;;;;4.22;1.42;;;;;;;25.97;43.73;99611.88;20667343;28;20101;-70
2021/06/21 12:55:05;;;;;;;3.40;1.50;;;;;;;26.34;44.54;99620.84;20665691;28;20054;-69
2021/06/21 13:05:10;;;;;;;4.78;1.30;;;;;;;25.96;44.62;99628.94;20664676;28;20101;-69
2021/06/21 13:15:42;;;;;;;4.20;1.55;;;;;;;26.10;45.68;99633.88;20739117;23;20144;-82
2021/06/21 13:26:28;;;;;;;;;;;;;;;26.49;44.58;99632.00;20806020;23;20518;-76
2021/06/21 13:36:30;;;;;;;4.13;1.48;;;;;;;26.85;42.18;99619.59;20826186;28;19921;-75
2021/06/21 13:46:38;;;;;;;4.25;1.30;;;;;;;27.24;41.34;99616.78;20827629;28;20107;-74
2021/06/21 13:56:40;;;;;;;5.43;1.33;;;;;;;27.22;41.21;99613.41;20807884;28;20111;-74
2021/06/21 14:06:43;;;;;;;3.08;1.10;;;;;;;27.21;39.94;99597.41;20823556;28;20056;-74
2021/06/21 14:16:49;;;;;;;2.88;1.30;;;;;;;27.82;39.07;99591.34;20827478;28;20056;-74
2021/06/21 14:26:53;;;;;;;5.00;1.50;;;;;;;26.99;42.04;99594.09;20849681;28;20075;-74
2021/06/21 14:36:54;;;;;;;4.97;1.50;;;;;;;27.16;41.21;99594.31;20827721;28;20041;-73
2021/06/21 14:46:56;;;;;;;3.88;1.40;;;;;;;27.50;40.53;99575.69;20819633;28;20060;-73
2021/06/21 14:56:58;;;;;;;3.67;1.30;;;;;;;27.73;38.36;99560.84;20819553;28;20487;-74
2021/06/21 15:06:59;;;;;;;3.88;1.63;;;;;;;28.20;38.97;99546.25;20820424;28;20046;-74
2021/06/21 15:17:02;;;;;;;4.50;1.60;;;;;;;27.60;39.85;99545.06;20836080;28;20049;-74
2021/06/21 15:27:04;;;;;;;3.47;1.57;;;;;;;27.61;41.79;99535.16;20836219;28;20141;-74
2021/06/21 15:37:09;;;;;;;2.95;1.20;;;;;;;27.62;39.33;99531.47;20834594;28;20045;-75
2021/06/21 15:47:11;;;;;;;7.47;1.58;;;;;;;27.52;38.19;99510.03;20815694;28;20080;-75
2021/06/21 15:57:12;;;;;;;3.85;1.30;;;;;;;27.34;38.90;99501.13;20833233;28;20096;-75
2021/06/21 16:07:14;;;;;;;3.95;1.55;;;;;;;27.35;38.01;99509.03;20773641;28;20077;-75
2021/06/21 16:17:16;;;;;;;5.50;1.80;;;;;;;27.97;37.93;99510.91;20750236;28;20100;-75
2021/06/21 16:27:18;;;;;;;4.13;1.60;;;;;;;27.30;39.35;99505.94;20691454;28;20046;-74
2021/06/21 16:37:20;;;;;;;5.05;1.65;;;;;;;27.32;40.71;99503.97;20667219;28;20072;-74
2021/06/21 16:47:22;;;;;;;4.15;1.42;;;;;;;27.44;38.60;99495.66;20667124;28;20053;-74
2021/06/21 16:57:24;;;;;;;5.28;1.70;;;;;;;26.96;39.17;99488.78;20666350;28;20058;-75
2021/06/21 17:07:26;;;;;;;5.97;1.75;;;;;;;27.06;41.93;99532.53;20664141;28;20108;-75
2021/06/21 17:17:27;;;;;;;3.30;1.77;;;;;;;26.87;42.61;99530.81;20665101;28;20555;-75
2021/06/21 17:27:29;;;;;;;5.05;2.00;;;;;;;26.68;42.66;99547.84;20722353;28;20065;-75
2021/06/21 17:37:31;;;;;;;3.60;1.83;;;;;;;26.62;46.80;99545.78;20742384;28;20412;-75
2021/06/21 17:47:33;;;;;;;6.03;3.25;;;;;;;26.28;46.94;99537.38;20743654;28;20393;-74
2021/06/21 17:57:41;;;;;;;5.20;1.85;;;;;;;26.22;45.91;99565.66;20743052;28;20080;-74
2021/06/21 18:07:45;;;;;;;2.55;1.50;;;;;;;26.06;43.69;99568.06;20741630;28;20058;-75
2021/06/21 18:17:47;;;;;;;4.93;3.00;;;;;;;25.75;46.26;99568.25;20682400;28;20378;-75
2021/06/21 18:27:49;;;;;;;6.97;1.85;;;;;;;25.52;47.41;99585.56;20660143;28;20047;-75
2021/06/21 18:37:50;;;;;;;5.70;2.00;;;;;;;25.30;52.30;99575.94;20656893;28;20050;-75
2021/06/21 18:47:54;;;;;;;4.10;1.75;;;;;;;24.99;54.88;99573.28;20658784;28;20054;-75
2021/06/21 18:57:57;;;;;;;3.95;1.80;;;;;;;24.68;55.85;99553.75;20677506;28;20074;-75
2021/06/21 19:07:58;;;;;;;5.53;1.95;;;;;;;24.61;55.64;99560.59;20668391;28;20038;-75
2021/06/21 19:18:06;;;;;;;5.68;1.60;;;;;;;24.27;56.08;99560.81;20656964;28;20199;-74
2021/06/21 19:28:10;;;;;;;7.35;2.30;;;;;;;24.09;56.13;99575.75;20654568;28;20046;-75
2021/06/21 19:38:12;;;;;;;4.50;1.63;;;;;;;23.73;57.23;99598.44;20654021;28;20042;-74
2021/06/21 19:48:15;;;;;;;8.38;2.05;;;;;;;23.42;57.56;99616.09;20654855;28;20047;-76
2021/06/21 19:58:17;;;;;;;6.97;2.17;;;;;;;23.59;56.93;99650.31;20660055;28;20058;-75
2021/06/21 20:08:22;;;;;;;6.00;2.45;;;;;;;23.04;59.76;99700.13;20669240;28;20043;-75
2021/06/21 20:18:24;;;;;;;5.43;1.80;;;;;;;23.23;60.03;99735.09;20669283;28;20058;-75
2021/06/21 20:28:25;;;;;;;5.32;1.70;;;;;;;23.18;60.11;99705.25;20667232;28;20097;-74
2021/06/21 20:38:30;;;;;;;3.75;2.03;;;;;;;22.89;62.66;99709.34;20667619;28;20046;-73
2021/06/21 20:48:32;;;;;;;8.50;2.50;;;;;;;20.53;76.16;99830.16;20666420;28;20062;-71
2021/06/21 20:58:34;;;;;;;6.10;2.70;;;;;;;18.32;84.75;99906.34;20662764;28;20046;-69
2021/06/21 21:08:35;;;;;;;5.55;2.10;;;;;;;18.30;82.02;99910.00;20662444;28;20042;-68
2021/06/21 21:18:37;;;;;;;4.32;1.60;;;;;;;18.05;82.50;99899.91;20662843;28;20051;-69
2021/06/21 21:28:39;;;;;;;6.30;2.00;;;;;;;17.21;84.77;99848.78;20728646;28;20054;-69
2021/06/21 21:38:41;;;;;;;5.75;1.75;;;;;;;17.18;83.72;99818.88;20735504;28;20046;-69
2021/06/21 21:48:43;;;;;;;5.97;1.85;;;;;;;16.99;85.96;99811.97;20723448;28;20050;-69
2021/06/21 21:58:45;;;;;;;4.65;1.45;;;;;;;17.14;84.84;99788.22;20742249;28;20050;-68
2021/06/21 22:08:46;;;;;;;7.25;1.95;;;;;;;17.01;85.28;99781.88;20642919;28;20054;-69
2021/06/21 22:18:48;;;;;;;4.65;1.77;;;;;;;17.33;86.03;99776.66;20696061;23;20289;-69
2021/06/21 22:28:50;;;;;;;4.10;1.77;;;;;;;17.57;86.37;99835.38;20738412;28;20049;-69
2021/06/21 22:38:53;;;;;;;3.50;1.70;;;;;;;17.43;86.36;99874.00;20737421;28;20451;-68
2021/06/21 22:48:54;;;;;;;3.58;1.60;;;;;;;17.60;85.94;99886.38;20736908;28;20546;-68
2021/06/21 22:58:56;;;;;;;6.55;1.70;;;;;;;17.51;86.14;99889.50;20737321;28;20551;-68
2021/06/21 23:08:58;;;;;;;4.28;1.90;;;;;;;17.50;85.48;99910.78;20735305;28;20406;-69
2021/06/21 23:19:00;;;;;;;6.28;2.00;;;;;;;17.41;85.83;99920.03;20718212;28;20112;-69
2021/06/21 23:29:02;;;;;;;4.57;1.90;;;;;;;17.54;85.55;99930.84;20735190;28;20128;-69
2021/06/21 23:39:05;;;;;;;4.25;2.00;;;;;;;17.64;85.78;99938.22;20751037;28;20042;-69
2021/06/21 23:49:07;;;;;;;8.02;2.28;;;;;;;17.60;85.83;99935.81;20750541;28;20054;-69
2021/06/21 23:59:09;;;;;;;4.53;2.40;;;;;;;17.77;85.31;99919.06;20749073;28;20042;-68
